sensor_id;sensor_type;location;lat;lon;timestamp;P1;durP1;ratioP1;P2;durP2;ratioP2
26981;SDS011;14533;50.848;4.380;2022-11-20T00:01:14;74.03;;;37.03;;
26981;SDS011;14533;50.848;4.380;2022-11-20T00:03:43;71.10;;;36.65;;
26981;SDS011;14533;50.848;4.380;2022-11-20T00:06:10;65.78;;;33.70;;
26981;SDS011;14533;50.848;4.380;2022-11-20T00:08:38;69.38;;;34.40;;
26981;SDS011;14533;50.848;4.380;2022-11-20T00:11:08;67.30;;;34.70;;
26981;SDS011;14533;50.848;4.380;2022-11-20T00:13:44;61.08;;;34.38;;
26981;SDS011;14533;50.848;4.380;2022-11-20T00:16:11;65.63;;;36.05;;
26981;SDS011;14533;50.848;4.380;2022-11-20T00:18:39;70.10;;;35.38;;
26981;SDS011;14533;50.848;4.380;2022-11-20T00:21:15;65.22;;;34.13;;
26981;SDS011;14533;50.848;4.380;2022-11-20T00:23:45;69.90;;;35.45;;
26981;SDS011;14533;50.848;4.380;2022-11-20T00:26:13;64.72;;;33.90;;
26981;SDS011;14533;50.848;4.380;2022-11-20T00:28:40;59.50;;;33.33;;
26981;SDS011;14533;50.848;4.380;2022-11-20T00:31:14;62.50;;;34.70;;
26981;SDS011;14533;50.848;4.380;2022-11-20T00:33:41;60.97;;;34.45;;
26981;SDS011;14533;50.848;4.380;2022-11-20T00:36:08;66.22;;;33.70;;
26981;SDS011;14533;50.848;4.380;2022-11-20T00:38:36;65.13;;;34.17;;
26981;SDS011;14533;50.848;4.380;2022-11-20T00:41:03;61.78;;;33.20;;
26981;SDS011;14533;50.848;4.380;2022-11-20T00:43:30;67.25;;;34.65;;
26981;SDS011;14533;50.848;4.380;2022-11-20T00:45:57;68.75;;;33.80;;
26981;SDS011;14533;50.848;4.380;2022-11-20T00:48:27;71.40;;;35.80;;
26981;SDS011;14533;50.848;4.380;2022-11-20T00:50:53;71.65;;;37.45;;
26981;SDS011;14533;50.848;4.380;2022-11-20T00:53:19;72.38;;;37.13;;
26981;SDS011;14533;50.848;4.380;2022-11-20T00:55:52;71.50;;;36.17;;
26981;SDS011;14533;50.848;4.380;2022-11-20T00:58:21;69.78;;;34.90;;
26981;SDS011;14533;50.848;4.380;2022-11-20T01:00:48;64.03;;;34.10;;
26981;SDS011;14533;50.848;4.380;2022-11-20T01:03:15;68.88;;;36.47;;
26981;SDS011;14533;50.848;4.380;2022-11-20T01:05:45;68.45;;;36.38;;
26981;SDS011;14533;50.848;4.380;2022-11-20T01:08:11;67.93;;;37.45;;
26981;SDS011;14533;50.848;4.380;2022-11-20T01:10:36;68.43;;;36.35;;
26981;SDS011;14533;50.848;4.380;2022-11-20T01:13:02;69.93;;;38.45;;
26981;SDS011;14533;50.848;4.380;2022-11-20T01:15:46;72.40;;;37.25;;
26981;SDS011;14533;50.848;4.380;2022-11-20T01:18:11;70.28;;;36.33;;
26981;SDS011;14533;50.848;4.380;2022-11-20T01:20:37;76.45;;;37.03;;
26981;SDS011;14533;50.848;4.380;2022-11-20T01:23:03;67.85;;;35.22;;
26981;SDS011;14533;50.848;4.380;2022-11-20T01:25:29;70.80;;;36.00;;
26981;SDS011;14533;50.848;4.380;2022-11-20T01:27:54;66.13;;;35.95;;
26981;SDS011;14533;50.848;4.380;2022-11-20T01:30:20;72.65;;;36.88;;
26981;SDS011;14533;50.848;4.380;2022-11-20T01:32:46;72.35;;;37.92;;
26981;SDS011;14533;50.848;4.380;2022-11-20T01:35:11;75.25;;;36.70;;
26981;SDS011;14533;50.848;4.380;2022-11-20T01:37:37;63.63;;;35.45;;
26981;SDS011;14533;50.848;4.380;2022-11-20T01:40:03;75.28;;;36.85;;
26981;SDS011;14533;50.848;4.380;2022-11-20T01:42:28;73.25;;;37.45;;
26981;SDS011;14533;50.848;4.380;2022-11-20T01:48:16;70.03;;;37.53;;
26981;SDS011;14533;50.848;4.380;2022-11-20T01:50:45;76.57;;;38.15;;
26981;SDS011;14533;50.848;4.380;2022-11-20T01:53:13;77.10;;;37.10;;
26981;SDS011;14533;50.848;4.380;2022-11-20T01:55:47;83.80;;;40.60;;
26981;SDS011;14533;50.848;4.380;2022-11-20T01:58:16;70.68;;;37.90;;
26981;SDS011;14533;50.848;4.380;2022-11-20T02:00:45;74.22;;;38.65;;
26981;SDS011;14533;50.848;4.380;2022-11-20T02:03:12;80.88;;;41.38;;
26981;SDS011;14533;50.848;4.380;2022-11-20T02:08:20;75.13;;;39.47;;
26981;SDS011;14533;50.848;4.380;2022-11-20T02:10:48;83.60;;;39.55;;
26981;SDS011;14533;50.848;4.380;2022-11-20T02:13:13;78.57;;;40.13;;
26981;SDS011;14533;50.848;4.380;2022-11-20T02:15:58;75.80;;;38.47;;
26981;SDS011;14533;50.848;4.380;2022-11-20T02:18:24;80.38;;;40.47;;
26981;SDS011;14533;50.848;4.380;2022-11-20T02:20:52;88.50;;;42.35;;
26981;SDS011;14533;50.848;4.380;2022-11-20T02:25:56;95.13;;;41.83;;
26981;SDS011;14533;50.848;4.380;2022-11-20T02:28:23;92.25;;;42.65;;
26981;SDS011;14533;50.848;4.380;2022-11-20T02:30:49;86.10;;;42.83;;
26981;SDS011;14533;50.848;4.380;2022-11-20T02:33:14;89.47;;;41.45;;
26981;SDS011;14533;50.848;4.380;2022-11-20T02:35:42;83.07;;;39.05;;
26981;SDS011;14533;50.848;4.380;2022-11-20T02:38:10;78.40;;;39.42;;
26981;SDS011;14533;50.848;4.380;2022-11-20T02:40:36;79.20;;;37.38;;
26981;SDS011;14533;50.848;4.380;2022-11-20T02:43:02;77.88;;;35.95;;
26981;SDS011;14533;50.848;4.380;2022-11-20T02:45:28;66.20;;;32.65;;
26981;SDS011;14533;50.848;4.380;2022-11-20T02:47:53;72.13;;;34.65;;
26981;SDS011;14533;50.848;4.380;2022-11-20T02:50:19;70.85;;;32.85;;
26981;SDS011;14533;50.848;4.380;2022-11-20T02:52:45;70.05;;;33.70;;
26981;SDS011;14533;50.848;4.380;2022-11-20T02:55:11;72.10;;;34.17;;
26981;SDS011;14533;50.848;4.380;2022-11-20T02:57:36;74.93;;;33.53;;
26981;SDS011;14533;50.848;4.380;2022-11-20T03:00:03;76.88;;;35.55;;
26981;SDS011;14533;50.848;4.380;2022-11-20T03:02:31;77.75;;;34.22;;
26981;SDS011;14533;50.848;4.380;2022-11-20T03:04:57;77.65;;;35.22;;
26981;SDS011;14533;50.848;4.380;2022-11-20T03:07:25;72.75;;;34.35;;
26981;SDS011;14533;50.848;4.380;2022-11-20T03:09:51;71.30;;;33.40;;
26981;SDS011;14533;50.848;4.380;2022-11-20T03:12:18;70.80;;;33.00;;
26981;SDS011;14533;50.848;4.380;2022-11-20T03:14:44;60.60;;;29.33;;
26981;SDS011;14533;50.848;4.380;2022-11-20T03:17:10;55.58;;;27.98;;
26981;SDS011;14533;50.848;4.380;2022-11-20T03:19:36;56.55;;;26.42;;
26981;SDS011;14533;50.848;4.380;2022-11-20T03:22:01;62.70;;;27.90;;
26981;SDS011;14533;50.848;4.380;2022-11-20T03:24:28;60.30;;;29.20;;
26981;SDS011;14533;50.848;4.380;2022-11-20T03:26:54;64.53;;;30.45;;
26981;SDS011;14533;50.848;4.380;2022-11-20T03:29:19;62.38;;;29.08;;
26981;SDS011;14533;50.848;4.380;2022-11-20T03:31:45;66.65;;;30.92;;
26981;SDS011;14533;50.848;4.380;2022-11-20T03:34:11;59.63;;;27.80;;
26981;SDS011;14533;50.848;4.380;2022-11-20T03:36:41;57.30;;;27.00;;
26981;SDS011;14533;50.848;4.380;2022-11-20T03:39:07;54.90;;;27.80;;
26981;SDS011;14533;50.848;4.380;2022-11-20T03:41:37;61.10;;;28.10;;
26981;SDS011;14533;50.848;4.380;2022-11-20T03:44:07;63.22;;;27.77;;
26981;SDS011;14533;50.848;4.380;2022-11-20T03:46:34;64.35;;;27.85;;
26981;SDS011;14533;50.848;4.380;2022-11-20T03:49:00;70.82;;;30.13;;
26981;SDS011;14533;50.848;4.380;2022-11-20T03:51:27;59.97;;;30.00;;
26981;SDS011;14533;50.848;4.380;2022-11-20T03:53:56;57.67;;;29.63;;
26981;SDS011;14533;50.848;4.380;2022-11-20T03:56:23;61.40;;;27.67;;
26981;SDS011;14533;50.848;4.380;2022-11-20T03:59:00;61.35;;;28.88;;
26981;SDS011;14533;50.848;4.380;2022-11-20T04:01:27;62.47;;;27.92;;
26981;SDS011;14533;50.848;4.380;2022-11-20T04:03:55;64.95;;;29.65;;
26981;SDS011;14533;50.848;4.380;2022-11-20T04:06:27;67.97;;;30.20;;
26981;SDS011;14533;50.848;4.380;2022-11-20T04:08:57;61.33;;;28.88;;
26981;SDS011;14533;50.848;4.380;2022-11-20T04:11:27;66.55;;;30.02;;
26981;SDS011;14533;50.848;4.380;2022-11-20T04:13:55;67.88;;;29.60;;
26981;SDS011;14533;50.848;4.380;2022-11-20T04:16:26;70.90;;;31.85;;
26981;SDS011;14533;50.848;4.380;2022-11-20T04:18:55;74.18;;;30.73;;
26981;SDS011;14533;50.848;4.380;2022-11-20T04:21:23;72.80;;;30.92;;
26981;SDS011;14533;50.848;4.380;2022-11-20T04:23:49;73.57;;;30.80;;
26981;SDS011;14533;50.848;4.380;2022-11-20T04:26:16;75.15;;;33.72;;
26981;SDS011;14533;50.848;4.380;2022-11-20T04:28:41;74.47;;;33.15;;
26981;SDS011;14533;50.848;4.380;2022-11-20T04:31:11;73.30;;;32.42;;
26981;SDS011;14533;50.848;4.380;2022-11-20T04:33:44;72.65;;;32.13;;
26981;SDS011;14533;50.848;4.380;2022-11-20T04:36:12;78.80;;;33.72;;
26981;SDS011;14533;50.848;4.380;2022-11-20T04:38:39;74.72;;;33.60;;
26981;SDS011;14533;50.848;4.380;2022-11-20T04:41:06;82.80;;;35.00;;
26981;SDS011;14533;50.848;4.380;2022-11-20T04:43:38;79.28;;;34.60;;
26981;SDS011;14533;50.848;4.380;2022-11-20T04:46:04;81.53;;;35.08;;
26981;SDS011;14533;50.848;4.380;2022-11-20T04:48:30;82.93;;;33.42;;
26981;SDS011;14533;50.848;4.380;2022-11-20T04:50:56;84.55;;;34.20;;
26981;SDS011;14533;50.848;4.380;2022-11-20T04:53:22;80.57;;;32.55;;
26981;SDS011;14533;50.848;4.380;2022-11-20T04:55:48;92.03;;;37.10;;
26981;SDS011;14533;50.848;4.380;2022-11-20T04:58:14;84.88;;;35.20;;
26981;SDS011;14533;50.848;4.380;2022-11-20T05:00:41;80.55;;;33.70;;
26981;SDS011;14533;50.848;4.380;2022-11-20T05:03:06;84.65;;;36.08;;
26981;SDS011;14533;50.848;4.380;2022-11-20T05:05:33;77.20;;;34.83;;
26981;SDS011;14533;50.848;4.380;2022-11-20T05:08:00;78.97;;;33.58;;
26981;SDS011;14533;50.848;4.380;2022-11-20T05:10:32;80.68;;;34.25;;
26981;SDS011;14533;50.848;4.380;2022-11-20T05:15:25;87.32;;;32.20;;
26981;SDS011;14533;50.848;4.380;2022-11-20T05:17:51;80.47;;;34.03;;
26981;SDS011;14533;50.848;4.380;2022-11-20T05:20:17;82.53;;;32.50;;
26981;SDS011;14533;50.848;4.380;2022-11-20T05:22:43;77.18;;;33.92;;
26981;SDS011;14533;50.848;4.380;2022-11-20T05:25:09;82.07;;;32.65;;
26981;SDS011;14533;50.848;4.380;2022-11-20T05:27:35;86.80;;;35.83;;
26981;SDS011;14533;50.848;4.380;2022-11-20T05:30:02;87.55;;;35.08;;
26981;SDS011;14533;50.848;4.380;2022-11-20T05:32:28;76.40;;;32.50;;
26981;SDS011;14533;50.848;4.380;2022-11-20T05:34:54;81.18;;;33.13;;
26981;SDS011;14533;50.848;4.380;2022-11-20T05:37:21;73.63;;;32.70;;
26981;SDS011;14533;50.848;4.380;2022-11-20T05:39:46;83.45;;;34.00;;
26981;SDS011;14533;50.848;4.380;2022-11-20T05:42:12;78.18;;;33.13;;
26981;SDS011;14533;50.848;4.380;2022-11-20T05:44:59;86.10;;;33.58;;
26981;SDS011;14533;50.848;4.380;2022-11-20T05:47:27;86.05;;;33.92;;
26981;SDS011;14533;50.848;4.380;2022-11-20T05:49:58;87.22;;;33.88;;
26981;SDS011;14533;50.848;4.380;2022-11-20T05:52:23;81.38;;;33.90;;
26981;SDS011;14533;50.848;4.380;2022-11-20T05:54:49;82.35;;;34.15;;
26981;SDS011;14533;50.848;4.380;2022-11-20T05:57:16;81.82;;;32.63;;
26981;SDS011;14533;50.848;4.380;2022-11-20T05:59:42;86.35;;;33.63;;
26981;SDS011;14533;50.848;4.380;2022-11-20T06:02:07;81.95;;;34.42;;
26981;SDS011;14533;50.848;4.380;2022-11-20T06:04:33;79.18;;;33.38;;
26981;SDS011;14533;50.848;4.380;2022-11-20T06:06:58;81.20;;;33.75;;
26981;SDS011;14533;50.848;4.380;2022-11-20T06:09:24;85.18;;;33.20;;
26981;SDS011;14533;50.848;4.380;2022-11-20T06:11:50;81.18;;;32.85;;
26981;SDS011;14533;50.848;4.380;2022-11-20T06:14:17;81.78;;;32.42;;
26981;SDS011;14533;50.848;4.380;2022-11-20T06:16:43;84.05;;;33.53;;
26981;SDS011;14533;50.848;4.380;2022-11-20T06:19:08;86.50;;;32.80;;
26981;SDS011;14533;50.848;4.380;2022-11-20T06:21:34;90.47;;;35.50;;
26981;SDS011;14533;50.848;4.380;2022-11-20T06:23:59;88.97;;;35.22;;
26981;SDS011;14533;50.848;4.380;2022-11-20T06:26:25;87.75;;;35.53;;
26981;SDS011;14533;50.848;4.380;2022-11-20T06:28:52;87.90;;;34.80;;
26981;SDS011;14533;50.848;4.380;2022-11-20T06:31:21;83.75;;;32.80;;
26981;SDS011;14533;50.848;4.380;2022-11-20T06:33:48;83.93;;;32.65;;
26981;SDS011;14533;50.848;4.380;2022-11-20T06:36:15;95.10;;;33.33;;
26981;SDS011;14533;50.848;4.380;2022-11-20T06:38:42;93.75;;;35.40;;
26981;SDS011;14533;50.848;4.380;2022-11-20T06:41:12;86.32;;;34.38;;
26981;SDS011;14533;50.848;4.380;2022-11-20T06:43:41;81.95;;;32.47;;
26981;SDS011;14533;50.848;4.380;2022-11-20T06:46:09;83.75;;;34.10;;
26981;SDS011;14533;50.848;4.380;2022-11-20T06:48:35;93.90;;;33.80;;
26981;SDS011;14533;50.848;4.380;2022-11-20T06:51:04;85.32;;;33.35;;
26981;SDS011;14533;50.848;4.380;2022-11-20T06:53:31;89.90;;;34.30;;
26981;SDS011;14533;50.848;4.380;2022-11-20T06:55:57;102.78;;;41.22;;
26981;SDS011;14533;50.848;4.380;2022-11-20T06:58:23;87.55;;;33.78;;
26981;SDS011;14533;50.848;4.380;2022-11-20T07:00:50;85.93;;;33.90;;
26981;SDS011;14533;50.848;4.380;2022-11-20T07:03:16;81.88;;;34.65;;
26981;SDS011;14533;50.848;4.380;2022-11-20T07:05:42;89.20;;;34.17;;
26981;SDS011;14533;50.848;4.380;2022-11-20T07:08:09;88.68;;;34.72;;
26981;SDS011;14533;50.848;4.380;2022-11-20T07:10:35;80.80;;;33.05;;
26981;SDS011;14533;50.848;4.380;2022-11-20T07:13:01;83.30;;;31.25;;
26981;SDS011;14533;50.848;4.380;2022-11-20T07:15:26;81.38;;;32.47;;
26981;SDS011;14533;50.848;4.380;2022-11-20T07:17:52;80.18;;;32.70;;
26981;SDS011;14533;50.848;4.380;2022-11-20T07:20:19;73.40;;;31.42;;
26981;SDS011;14533;50.848;4.380;2022-11-20T07:22:45;80.10;;;30.98;;
26981;SDS011;14533;50.848;4.380;2022-11-20T07:25:10;83.22;;;33.45;;
26981;SDS011;14533;50.848;4.380;2022-11-20T07:27:37;81.13;;;33.83;;
26981;SDS011;14533;50.848;4.380;2022-11-20T07:30:03;83.50;;;36.35;;
26981;SDS011;14533;50.848;4.380;2022-11-20T07:32:29;84.55;;;33.92;;
26981;SDS011;14533;50.848;4.380;2022-11-20T07:34:55;77.50;;;32.40;;
26981;SDS011;14533;50.848;4.380;2022-11-20T07:37:22;71.88;;;30.20;;
26981;SDS011;14533;50.848;4.380;2022-11-20T07:39:48;71.60;;;30.58;;
26981;SDS011;14533;50.848;4.380;2022-11-20T07:42:14;76.13;;;31.52;;
26981;SDS011;14533;50.848;4.380;2022-11-20T07:44:40;81.00;;;32.85;;
26981;SDS011;14533;50.848;4.380;2022-11-20T07:47:05;71.57;;;31.20;;
26981;SDS011;14533;50.848;4.380;2022-11-20T07:49:34;83.20;;;31.30;;
26981;SDS011;14533;50.848;4.380;2022-11-20T07:52:00;83.45;;;32.30;;
26981;SDS011;14533;50.848;4.380;2022-11-20T07:54:25;85.80;;;33.20;;
26981;SDS011;14533;50.848;4.380;2022-11-20T07:56:51;84.85;;;32.78;;
26981;SDS011;14533;50.848;4.380;2022-11-20T07:59:16;82.15;;;33.95;;
26981;SDS011;14533;50.848;4.380;2022-11-20T08:01:42;89.78;;;33.03;;
26981;SDS011;14533;50.848;4.380;2022-11-20T08:04:08;85.82;;;33.25;;
26981;SDS011;14533;50.848;4.380;2022-11-20T08:06:34;100.78;;;35.05;;
26981;SDS011;14533;50.848;4.380;2022-11-20T08:09:00;85.32;;;32.78;;
26981;SDS011;14533;50.848;4.380;2022-11-20T08:11:26;84.28;;;32.17;;
26981;SDS011;14533;50.848;4.380;2022-11-20T08:14:10;86.38;;;31.45;;
26981;SDS011;14533;50.848;4.380;2022-11-20T08:16:44;89.75;;;32.95;;
26981;SDS011;14533;50.848;4.380;2022-11-20T08:19:15;97.95;;;34.42;;
26981;SDS011;14533;50.848;4.380;2022-11-20T08:21:43;84.47;;;30.90;;
26981;SDS011;14533;50.848;4.380;2022-11-20T08:24:10;78.05;;;30.52;;
26981;SDS011;14533;50.848;4.380;2022-11-20T08:26:36;88.35;;;32.78;;
26981;SDS011;14533;50.848;4.380;2022-11-20T08:29:03;87.50;;;33.05;;
26981;SDS011;14533;50.848;4.380;2022-11-20T08:31:30;85.18;;;32.78;;
26981;SDS011;14533;50.848;4.380;2022-11-20T08:33:56;83.45;;;32.25;;
26981;SDS011;14533;50.848;4.380;2022-11-20T08:36:22;87.10;;;31.38;;
26981;SDS011;14533;50.848;4.380;2022-11-20T08:38:49;84.95;;;32.97;;
26981;SDS011;14533;50.848;4.380;2022-11-20T08:41:16;85.53;;;32.53;;
26981;SDS011;14533;50.848;4.380;2022-11-20T08:43:48;86.03;;;31.38;;
26981;SDS011;14533;50.848;4.380;2022-11-20T08:46:16;85.45;;;32.67;;
26981;SDS011;14533;50.848;4.380;2022-11-20T08:48:42;83.38;;;33.10;;
26981;SDS011;14533;50.848;4.380;2022-11-20T08:51:08;87.78;;;30.55;;
26981;SDS011;14533;50.848;4.380;2022-11-20T08:53:34;70.43;;;29.02;;
26981;SDS011;14533;50.848;4.380;2022-11-20T08:56:00;76.53;;;30.00;;
26981;SDS011;14533;50.848;4.380;2022-11-20T08:58:26;78.78;;;30.80;;
26981;SDS011;14533;50.848;4.380;2022-11-20T09:00:51;71.18;;;28.77;;
26981;SDS011;14533;50.848;4.380;2022-11-20T09:03:19;87.65;;;31.05;;
26981;SDS011;14533;50.848;4.380;2022-11-20T09:05:45;75.32;;;29.98;;
26981;SDS011;14533;50.848;4.380;2022-11-20T09:08:10;70.65;;;28.05;;
26981;SDS011;14533;50.848;4.380;2022-11-20T09:10:36;70.18;;;28.00;;
26981;SDS011;14533;50.848;4.380;2022-11-20T09:13:04;66.88;;;27.52;;
26981;SDS011;14533;50.848;4.380;2022-11-20T09:15:30;66.45;;;27.48;;
26981;SDS011;14533;50.848;4.380;2022-11-20T09:17:57;62.88;;;25.98;;
26981;SDS011;14533;50.848;4.380;2022-11-20T09:20:25;65.55;;;27.00;;
26981;SDS011;14533;50.848;4.380;2022-11-20T09:22:52;64.82;;;27.98;;
26981;SDS011;14533;50.848;4.380;2022-11-20T09:25:18;67.63;;;27.63;;
26981;SDS011;14533;50.848;4.380;2022-11-20T09:27:43;56.83;;;25.75;;
26981;SDS011;14533;50.848;4.380;2022-11-20T09:30:10;59.33;;;26.25;;
26981;SDS011;14533;50.848;4.380;2022-11-20T09:32:40;60.63;;;26.85;;
26981;SDS011;14533;50.848;4.380;2022-11-20T09:35:06;55.38;;;25.92;;
26981;SDS011;14533;50.848;4.380;2022-11-20T09:37:33;53.95;;;24.38;;
26981;SDS011;14533;50.848;4.380;2022-11-20T09:39:58;52.80;;;25.50;;
26981;SDS011;14533;50.848;4.380;2022-11-20T09:42:27;59.28;;;25.65;;
26981;SDS011;14533;50.848;4.380;2022-11-20T09:48:06;52.95;;;22.63;;
26981;SDS011;14533;50.848;4.380;2022-11-20T09:56:22;48.58;;;22.60;;
26981;SDS011;14533;50.848;4.380;2022-11-20T09:58:49;46.88;;;21.85;;
26981;SDS011;14533;50.848;4.380;2022-11-20T10:01:17;53.33;;;22.98;;
26981;SDS011;14533;50.848;4.380;2022-11-20T10:03:58;41.25;;;19.88;;
26981;SDS011;14533;50.848;4.380;2022-11-20T10:06:44;37.38;;;18.30;;
26981;SDS011;14533;50.848;4.380;2022-11-20T10:09:21;37.05;;;18.10;;
26981;SDS011;14533;50.848;4.380;2022-11-20T10:12:10;37.75;;;17.15;;
26981;SDS011;14533;50.848;4.380;2022-11-20T10:17:53;33.75;;;15.23;;
26981;SDS011;14533;50.848;4.380;2022-11-20T10:26:40;30.88;;;14.13;;
26981;SDS011;14533;50.848;4.380;2022-11-20T10:29:34;25.63;;;14.68;;
26981;SDS011;14533;50.848;4.380;2022-11-20T10:32:04;28.08;;;12.93;;
26981;SDS011;14533;50.848;4.380;2022-11-20T10:34:53;23.40;;;11.73;;
26981;SDS011;14533;50.848;4.380;2022-11-20T10:37:25;25.98;;;10.88;;
26981;SDS011;14533;50.848;4.380;2022-11-20T10:42:31;21.45;;;10.85;;
26981;SDS011;14533;50.848;4.380;2022-11-20T10:45:10;17.55;;;9.90;;
26981;SDS011;14533;50.848;4.380;2022-11-20T10:47:47;19.98;;;8.85;;
26981;SDS011;14533;50.848;4.380;2022-11-20T10:50:14;21.83;;;9.50;;
26981;SDS011;14533;50.848;4.380;2022-11-20T10:55:33;21.85;;;9.25;;
26981;SDS011;14533;50.848;4.380;2022-11-20T10:58:14;20.10;;;8.52;;
26981;SDS011;14533;50.848;4.380;2022-11-20T11:01:17;17.00;;;8.73;;
26981;SDS011;14533;50.848;4.380;2022-11-20T11:03:46;15.48;;;7.10;;
26981;SDS011;14533;50.848;4.380;2022-11-20T11:06:17;18.10;;;7.13;;
26981;SDS011;14533;50.848;4.380;2022-11-20T11:08:53;16.45;;;5.95;;
26981;SDS011;14533;50.848;4.380;2022-11-20T11:11:26;12.93;;;6.20;;
26981;SDS011;14533;50.848;4.380;2022-11-20T11:14:05;13.18;;;5.95;;
26981;SDS011;14533;50.848;4.380;2022-11-20T11:16:31;10.48;;;5.50;;
26981;SDS011;14533;50.848;4.380;2022-11-20T11:19:03;15.73;;;5.80;;
26981;SDS011;14533;50.848;4.380;2022-11-20T11:21:36;16.25;;;5.80;;
26981;SDS011;14533;50.848;4.380;2022-11-20T11:24:15;13.65;;;5.57;;
26981;SDS011;14533;50.848;4.380;2022-11-20T11:29:35;10.55;;;4.95;;
26981;SDS011;14533;50.848;4.380;2022-11-20T11:34:36;8.20;;;4.50;;
26981;SDS011;14533;50.848;4.380;2022-11-20T11:37:02;13.88;;;5.60;;
26981;SDS011;14533;50.848;4.380;2022-11-20T11:39:32;9.15;;;4.20;;
26981;SDS011;14533;50.848;4.380;2022-11-20T11:41:59;18.30;;;4.93;;
26981;SDS011;14533;50.848;4.380;2022-11-20T11:44:28;9.90;;;4.47;;
26981;SDS011;14533;50.848;4.380;2022-11-20T11:47:21;8.32;;;4.40;;
26981;SDS011;14533;50.848;4.380;2022-11-20T11:49:49;15.23;;;5.40;;
26981;SDS011;14533;50.848;4.380;2022-11-20T11:52:25;13.30;;;4.35;;
26981;SDS011;14533;50.848;4.380;2022-11-20T11:54:53;11.40;;;5.13;;
26981;SDS011;14533;50.848;4.380;2022-11-20T12:00:21;15.48;;;5.43;;
26981;SDS011;14533;50.848;4.380;2022-11-20T12:10:59;14.63;;;4.20;;
26981;SDS011;14533;50.848;4.380;2022-11-20T12:13:50;12.85;;;4.85;;
26981;SDS011;14533;50.848;4.380;2022-11-20T12:16:28;13.63;;;3.90;;
26981;SDS011;14533;50.848;4.380;2022-11-20T12:18:58;10.65;;;4.10;;
26981;SDS011;14533;50.848;4.380;2022-11-20T12:24:04;9.52;;;3.78;;
26981;SDS011;14533;50.848;4.380;2022-11-20T12:26:51;16.92;;;5.90;;
26981;SDS011;14533;50.848;4.380;2022-11-20T12:37:33;11.95;;;5.00;;
26981;SDS011;14533;50.848;4.380;2022-11-20T12:40:15;14.02;;;5.20;;
26981;SDS011;14533;50.848;4.380;2022-11-20T12:48:41;12.27;;;4.55;;
26981;SDS011;14533;50.848;4.380;2022-11-20T13:00:15;10.90;;;4.55;;
26981;SDS011;14533;50.848;4.380;2022-11-20T13:02:51;12.18;;;4.43;;
26981;SDS011;14533;50.848;4.380;2022-11-20T13:05:43;5.80;;;3.65;;
26981;SDS011;14533;50.848;4.380;2022-11-20T13:08:25;6.70;;;4.57;;
26981;SDS011;14533;50.848;4.380;2022-11-20T13:18:45;14.52;;;5.10;;
26981;SDS011;14533;50.848;4.380;2022-11-20T13:23:41;10.52;;;4.40;;
26981;SDS011;14533;50.848;4.380;2022-11-20T13:28:47;10.27;;;4.60;;
26981;SDS011;14533;50.848;4.380;2022-11-20T13:33:55;12.13;;;4.93;;
26981;SDS011;14533;50.848;4.380;2022-11-20T13:36:24;11.55;;;4.90;;
26981;SDS011;14533;50.848;4.380;2022-11-20T13:38:55;10.20;;;5.05;;
26981;SDS011;14533;50.848;4.380;2022-11-20T13:41:35;9.57;;;4.88;;
26981;SDS011;14533;50.848;4.380;2022-11-20T13:44:15;16.85;;;5.38;;
26981;SDS011;14533;50.848;4.380;2022-11-20T13:46:54;7.88;;;5.03;;
26981;SDS011;14533;50.848;4.380;2022-11-20T13:49:30;9.60;;;4.57;;
26981;SDS011;14533;50.848;4.380;2022-11-20T13:58:21;16.73;;;10.35;;
26981;SDS011;14533;50.848;4.380;2022-11-20T14:01:09;8.68;;;5.10;;
26981;SDS011;14533;50.848;4.380;2022-11-20T14:03:40;9.43;;;6.07;;
26981;SDS011;14533;50.848;4.380;2022-11-20T14:06:21;7.22;;;4.15;;
26981;SDS011;14533;50.848;4.380;2022-11-20T14:08:50;8.43;;;4.63;;
26981;SDS011;14533;50.848;4.380;2022-11-20T14:11:17;6.25;;;3.05;;
26981;SDS011;14533;50.848;4.380;2022-11-20T14:13:55;15.20;;;8.40;;
26981;SDS011;14533;50.848;4.380;2022-11-20T14:16:22;26.38;;;16.25;;
26981;SDS011;14533;50.848;4.380;2022-11-20T14:18:49;13.50;;;8.60;;
26981;SDS011;14533;50.848;4.380;2022-11-20T14:21:28;8.20;;;5.05;;
26981;SDS011;14533;50.848;4.380;2022-11-20T14:24:09;10.18;;;4.95;;
26981;SDS011;14533;50.848;4.380;2022-11-20T14:26:37;23.55;;;14.38;;
26981;SDS011;14533;50.848;4.380;2022-11-20T14:29:13;6.53;;;4.78;;
26981;SDS011;14533;50.848;4.380;2022-11-20T14:31:44;4.53;;;3.40;;
26981;SDS011;14533;50.848;4.380;2022-11-20T14:34:15;12.95;;;8.50;;
26981;SDS011;14533;50.848;4.380;2022-11-20T14:36:47;13.73;;;7.82;;
26981;SDS011;14533;50.848;4.380;2022-11-20T14:39:20;168.00;;;88.15;;
26981;SDS011;14533;50.848;4.380;2022-11-20T14:41:50;123.85;;;65.90;;
26981;SDS011;14533;50.848;4.380;2022-11-20T14:44:16;19.63;;;11.07;;
26981;SDS011;14533;50.848;4.380;2022-11-20T14:46:42;6.43;;;4.28;;
26981;SDS011;14533;50.848;4.380;2022-11-20T14:49:08;12.75;;;6.63;;
26981;SDS011;14533;50.848;4.380;2022-11-20T14:51:37;5.43;;;3.80;;
26981;SDS011;14533;50.848;4.380;2022-11-20T14:54:17;12.00;;;5.50;;
26981;SDS011;14533;50.848;4.380;2022-11-20T14:57:03;8.57;;;5.45;;
26981;SDS011;14533;50.848;4.380;2022-11-20T14:59:30;7.30;;;4.60;;
26981;SDS011;14533;50.848;4.380;2022-11-20T15:02:08;6.78;;;4.18;;
26981;SDS011;14533;50.848;4.380;2022-11-20T15:04:49;5.22;;;3.80;;
26981;SDS011;14533;50.848;4.380;2022-11-20T15:07:26;6.95;;;4.35;;
26981;SDS011;14533;50.848;4.380;2022-11-20T15:10:07;5.35;;;3.63;;
26981;SDS011;14533;50.848;4.380;2022-11-20T15:12:37;8.88;;;4.28;;
26981;SDS011;14533;50.848;4.380;2022-11-20T15:15:05;9.73;;;4.65;;
26981;SDS011;14533;50.848;4.380;2022-11-20T15:17:36;5.78;;;3.45;;
26981;SDS011;14533;50.848;4.380;2022-11-20T15:20:05;5.13;;;3.72;;
26981;SDS011;14533;50.848;4.380;2022-11-20T15:22:38;7.60;;;3.58;;
26981;SDS011;14533;50.848;4.380;2022-11-20T15:25:13;5.88;;;3.92;;
26981;SDS011;14533;50.848;4.380;2022-11-20T15:27:41;7.47;;;4.13;;
26981;SDS011;14533;50.848;4.380;2022-11-20T15:30:18;8.20;;;4.05;;
26981;SDS011;14533;50.848;4.380;2022-11-20T15:32:44;8.50;;;4.50;;
26981;SDS011;14533;50.848;4.380;2022-11-20T15:35:11;9.82;;;4.20;;
26981;SDS011;14533;50.848;4.380;2022-11-20T15:37:37;6.20;;;4.22;;
26981;SDS011;14533;50.848;4.380;2022-11-20T15:40:03;6.35;;;4.82;;
26981;SDS011;14533;50.848;4.380;2022-11-20T15:42:29;8.80;;;4.78;;
26981;SDS011;14533;50.848;4.380;2022-11-20T15:44:55;9.60;;;4.57;;
26981;SDS011;14533;50.848;4.380;2022-11-20T15:47:23;6.82;;;4.32;;
26981;SDS011;14533;50.848;4.380;2022-11-20T15:49:54;13.43;;;4.82;;
26981;SDS011;14533;50.848;4.380;2022-11-20T15:52:19;12.30;;;5.28;;
26981;SDS011;14533;50.848;4.380;2022-11-20T15:54:48;10.05;;;4.97;;
26981;SDS011;14533;50.848;4.380;2022-11-20T15:57:13;13.00;;;5.53;;
26981;SDS011;14533;50.848;4.380;2022-11-20T15:59:39;11.65;;;5.05;;
26981;SDS011;14533;50.848;4.380;2022-11-20T16:02:12;9.18;;;4.35;;
26981;SDS011;14533;50.848;4.380;2022-11-20T16:04:39;21.42;;;6.35;;
26981;SDS011;14533;50.848;4.380;2022-11-20T16:07:06;15.98;;;5.28;;
26981;SDS011;14533;50.848;4.380;2022-11-20T16:09:32;18.40;;;4.65;;
26981;SDS011;14533;50.848;4.380;2022-11-20T16:11:58;17.85;;;4.90;;
26981;SDS011;14533;50.848;4.380;2022-11-20T16:14:26;9.20;;;4.80;;
26981;SDS011;14533;50.848;4.380;2022-11-20T16:17:11;12.27;;;4.50;;